sensor_id;sensor_type;location;lat;lon;timestamp;temperature;humidity
23873;DHT22;42884;50.718;4.630;2023-03-30T00:00:37;16.90;99.90
23873;DHT22;42884;50.718;4.630;2023-03-30T00:03:02;16.90;99.90
23873;DHT22;42884;50.718;4.630;2023-03-30T00:05:29;16.90;99.90
23873;DHT22;42884;50.718;4.630;2023-03-30T00:07:55;17.00;99.90
23873;DHT22;42884;50.718;4.630;2023-03-30T00:10:21;17.00;99.90
23873;DHT22;42884;50.718;4.630;2023-03-30T00:12:47;16.90;99.90
23873;DHT22;42884;50.718;4.630;2023-03-30T00:15:15;16.90;99.90
23873;DHT22;42884;50.718;4.630;2023-03-30T00:17:42;16.90;99.90
23873;DHT22;42884;50.718;4.630;2023-03-30T00:20:08;16.90;99.90
23873;DHT22;42884;50.718;4.630;2023-03-30T00:22:39;16.80;99.90
23873;DHT22;42884;50.718;4.630;2023-03-30T00:25:05;16.80;99.90
23873;DHT22;42884;50.718;4.630;2023-03-30T00:27:33;16.80;99.90
23873;DHT22;42884;50.718;4.630;2023-03-30T00:29:59;16.90;99.90
23873;DHT22;42884;50.718;4.630;2023-03-30T00:32:24;16.80;99.90
23873;DHT22;42884;50.718;4.630;2023-03-30T00:34:50;16.90;99.90
23873;DHT22;42884;50.718;4.630;2023-03-30T00:37:16;16.80;99.90
23873;DHT22;42884;50.718;4.630;2023-03-30T00:39:41;16.70;99.90
23873;DHT22;42884;50.718;4.630;2023-03-30T00:42:12;16.60;99.90
23873;DHT22;42884;50.718;4.630;2023-03-30T00:47:21;16.70;99.90
23873;DHT22;42884;50.718;4.630;2023-03-30T00:49:47;16.60;99.90
23873;DHT22;42884;50.718;4.630;2023-03-30T00:52:13;16.60;99.90
23873;DHT22;42884;50.718;4.630;2023-03-30T00:54:43;16.70;99.90
23873;DHT22;42884;50.718;4.630;2023-03-30T00:57:10;16.50;99.90
23873;DHT22;42884;50.718;4.630;2023-03-30T00:59:35;16.50;99.90
23873;DHT22;42884;50.718;4.630;2023-03-30T01:02:01;16.60;99.90
23873;DHT22;42884;50.718;4.630;2023-03-30T01:04:26;16.60;99.90
23873;DHT22;42884;50.718;4.630;2023-03-30T01:06:52;16.60;99.90
23873;DHT22;42884;50.718;4.630;2023-03-30T01:09:19;16.60;99.90
23873;DHT22;42884;50.718;4.630;2023-03-30T01:11:45;16.60;99.90
23873;DHT22;42884;50.718;4.630;2023-03-30T01:14:11;16.40;99.90
23873;DHT22;42884;50.718;4.630;2023-03-30T01:32:35;16.30;99.90
23873;DHT22;42884;50.718;4.630;2023-03-30T01:35:14;16.30;99.90
23873;DHT22;42884;50.718;4.630;2023-03-30T01:38:01;16.20;99.90
23873;DHT22;42884;50.718;4.630;2023-03-30T01:40:34;16.20;99.90
23873;DHT22;42884;50.718;4.630;2023-03-30T01:48:07;16.20;99.90
23873;DHT22;42884;50.718;4.630;2023-03-30T01:50:42;16.10;99.90
23873;DHT22;42884;50.718;4.630;2023-03-30T01:55:40;16.00;99.90
23873;DHT22;42884;50.718;4.630;2023-03-30T02:00:33;15.90;99.90
23873;DHT22;42884;50.718;4.630;2023-03-30T02:03:02;15.90;99.90
23873;DHT22;42884;50.718;4.630;2023-03-30T02:05:30;15.90;99.90
23873;DHT22;42884;50.718;4.630;2023-03-30T02:08:00;15.80;99.90
23873;DHT22;42884;50.718;4.630;2023-03-30T02:10:28;15.70;99.90
23873;DHT22;42884;50.718;4.630;2023-03-30T02:12:55;15.80;99.90
23873;DHT22;42884;50.718;4.630;2023-03-30T02:15:21;15.80;99.90
23873;DHT22;42884;50.718;4.630;2023-03-30T02:17:47;15.80;99.90
23873;DHT22;42884;50.718;4.630;2023-03-30T02:20:13;15.80;99.90
23873;DHT22;42884;50.718;4.630;2023-03-30T02:22:42;15.80;99.90
23873;DHT22;42884;50.718;4.630;2023-03-30T02:25:08;15.80;99.90
23873;DHT22;42884;50.718;4.630;2023-03-30T02:27:33;15.70;99.90
23873;DHT22;42884;50.718;4.630;2023-03-30T02:30:01;15.60;99.90
23873;DHT22;42884;50.718;4.630;2023-03-30T02:32:27;15.50;99.90
23873;DHT22;42884;50.718;4.630;2023-03-30T02:42:44;15.60;99.90
23873;DHT22;42884;50.718;4.630;2023-03-30T02:55:17;15.60;99.90
23873;DHT22;42884;50.718;4.630;2023-03-30T02:57:47;15.70;99.90
23873;DHT22;42884;50.718;4.630;2023-03-30T03:00:16;15.60;99.90
23873;DHT22;42884;50.718;4.630;2023-03-30T03:02:45;15.60;99.90
23873;DHT22;42884;50.718;4.630;2023-03-30T03:05:12;15.70;99.90
23873;DHT22;42884;50.718;4.630;2023-03-30T03:07:38;15.80;99.90
23873;DHT22;42884;50.718;4.630;2023-03-30T03:10:05;15.80;99.90
23873;DHT22;42884;50.718;4.630;2023-03-30T03:12:31;15.70;99.90
23873;DHT22;42884;50.718;4.630;2023-03-30T03:14:57;15.80;99.90
23873;DHT22;42884;50.718;4.630;2023-03-30T03:17:22;15.80;99.90
23873;DHT22;42884;50.718;4.630;2023-03-30T03:19:53;15.80;99.90
23873;DHT22;42884;50.718;4.630;2023-03-30T03:22:19;15.90;99.90
23873;DHT22;42884;50.718;4.630;2023-03-30T03:24:45;15.90;99.90
23873;DHT22;42884;50.718;4.630;2023-03-30T03:27:10;15.90;99.90
23873;DHT22;42884;50.718;4.630;2023-03-30T03:29:36;15.80;99.90
23873;DHT22;42884;50.718;4.630;2023-03-30T03:32:02;15.90;99.90
23873;DHT22;42884;50.718;4.630;2023-03-30T03:34:27;15.90;99.90
23873;DHT22;42884;50.718;4.630;2023-03-30T03:36:56;15.90;99.90
23873;DHT22;42884;50.718;4.630;2023-03-30T03:39:22;16.00;99.90
23873;DHT22;42884;50.718;4.630;2023-03-30T03:41:47;16.00;99.90
23873;DHT22;42884;50.718;4.630;2023-03-30T03:44:13;16.00;99.90
23873;DHT22;42884;50.718;4.630;2023-03-30T03:46:38;16.00;99.90
23873;DHT22;42884;50.718;4.630;2023-03-30T03:49:04;15.90;99.90
23873;DHT22;42884;50.718;4.630;2023-03-30T03:51:30;15.80;99.90
23873;DHT22;42884;50.718;4.630;2023-03-30T03:53:57;15.80;99.90
23873;DHT22;42884;50.718;4.630;2023-03-30T03:56:23;15.80;99.90
23873;DHT22;42884;50.718;4.630;2023-03-30T03:58:49;15.80;99.90
23873;DHT22;42884;50.718;4.630;2023-03-30T04:01:15;15.80;99.90
23873;DHT22;42884;50.718;4.630;2023-03-30T04:03:41;15.80;99.90
23873;DHT22;42884;50.718;4.630;2023-03-30T04:06:07;15.70;99.90
23873;DHT22;42884;50.718;4.630;2023-03-30T04:08:33;15.70;99.90
23873;DHT22;42884;50.718;4.630;2023-03-30T04:11:09;15.60;99.90
23873;DHT22;42884;50.718;4.630;2023-03-30T04:13:36;15.50;99.90
23873;DHT22;42884;50.718;4.630;2023-03-30T04:16:02;15.40;99.90
23873;DHT22;42884;50.718;4.630;2023-03-30T04:18:31;15.40;99.90
23873;DHT22;42884;50.718;4.630;2023-03-30T04:21:00;15.30;99.90
23873;DHT22;42884;50.718;4.630;2023-03-30T04:23:38;15.30;99.90
23873;DHT22;42884;50.718;4.630;2023-03-30T04:26:05;15.40;99.90
23873;DHT22;42884;50.718;4.630;2023-03-30T04:28:32;15.30;99.90
23873;DHT22;42884;50.718;4.630;2023-03-30T04:31:00;15.40;99.90
23873;DHT22;42884;50.718;4.630;2023-03-30T04:33:26;15.30;99.90
23873;DHT22;42884;50.718;4.630;2023-03-30T04:35:51;15.30;99.90
23873;DHT22;42884;50.718;4.630;2023-03-30T04:38:17;15.20;99.90
23873;DHT22;42884;50.718;4.630;2023-03-30T04:40:49;15.20;99.90
23873;DHT22;42884;50.718;4.630;2023-03-30T04:43:15;15.20;99.90
23873;DHT22;42884;50.718;4.630;2023-03-30T04:45:51;15.20;99.90
23873;DHT22;42884;50.718;4.630;2023-03-30T04:48:17;15.20;99.90
23873;DHT22;42884;50.718;4.630;2023-03-30T04:50:44;15.20;99.90
23873;DHT22;42884;50.718;4.630;2023-03-30T04:53:10;15.20;99.90
23873;DHT22;42884;50.718;4.630;2023-03-30T04:55:35;15.20;99.90
23873;DHT22;42884;50.718;4.630;2023-03-30T04:58:01;15.10;99.90
23873;DHT22;42884;50.718;4.630;2023-03-30T05:00:26;15.10;99.90
23873;DHT22;42884;50.718;4.630;2023-03-30T05:02:53;15.10;99.90
23873;DHT22;42884;50.718;4.630;2023-03-30T05:05:18;15.10;99.90
23873;DHT22;42884;50.718;4.630;2023-03-30T05:07:44;15.10;99.90
23873;DHT22;42884;50.718;4.630;2023-03-30T05:10:10;15.10;99.90
23873;DHT22;42884;50.718;4.630;2023-03-30T05:12:36;15.10;99.90
23873;DHT22;42884;50.718;4.630;2023-03-30T05:15:02;15.10;99.90
23873;DHT22;42884;50.718;4.630;2023-03-30T05:17:27;15.10;99.90
23873;DHT22;42884;50.718;4.630;2023-03-30T05:19:53;15.20;99.90
23873;DHT22;42884;50.718;4.630;2023-03-30T05:22:19;15.20;99.90
23873;DHT22;42884;50.718;4.630;2023-03-30T05:24:44;15.30;99.90
23873;DHT22;42884;50.718;4.630;2023-03-30T05:27:11;15.20;99.90
23873;DHT22;42884;50.718;4.630;2023-03-30T05:29:37;15.30;99.90
23873;DHT22;42884;50.718;4.630;2023-03-30T05:32:02;15.20;99.90
23873;DHT22;42884;50.718;4.630;2023-03-30T05:34:28;15.10;99.90
23873;DHT22;42884;50.718;4.630;2023-03-30T05:36:54;15.00;99.90
23873;DHT22;42884;50.718;4.630;2023-03-30T05:39:19;14.80;99.90
23873;DHT22;42884;50.718;4.630;2023-03-30T05:41:45;14.50;99.90
23873;DHT22;42884;50.718;4.630;2023-03-30T05:44:10;14.40;99.90
23873;DHT22;42884;50.718;4.630;2023-03-30T05:46:36;14.20;99.90
23873;DHT22;42884;50.718;4.630;2023-03-30T05:49:02;14.00;99.90
23873;DHT22;42884;50.718;4.630;2023-03-30T05:51:27;14.00;99.90
23873;DHT22;42884;50.718;4.630;2023-03-30T05:53:53;14.00;99.90
23873;DHT22;42884;50.718;4.630;2023-03-30T05:56:18;14.00;99.90
23873;DHT22;42884;50.718;4.630;2023-03-30T05:58:44;13.90;99.90
23873;DHT22;42884;50.718;4.630;2023-03-30T06:01:10;13.70;99.90
23873;DHT22;42884;50.718;4.630;2023-03-30T06:03:37;13.60;99.90
23873;DHT22;42884;50.718;4.630;2023-03-30T06:06:03;13.50;99.90
23873;DHT22;42884;50.718;4.630;2023-03-30T06:08:29;13.60;99.90
23873;DHT22;42884;50.718;4.630;2023-03-30T06:10:55;13.60;99.90
23873;DHT22;42884;50.718;4.630;2023-03-30T06:13:20;13.60;99.90
23873;DHT22;42884;50.718;4.630;2023-03-30T06:15:46;13.50;99.90
23873;DHT22;42884;50.718;4.630;2023-03-30T06:18:12;13.50;99.90
23873;DHT22;42884;50.718;4.630;2023-03-30T06:20:37;13.40;99.90
23873;DHT22;42884;50.718;4.630;2023-03-30T06:23:03;13.50;99.90
23873;DHT22;42884;50.718;4.630;2023-03-30T06:25:28;13.50;99.90
23873;DHT22;42884;50.718;4.630;2023-03-30T06:27:55;13.50;99.90
23873;DHT22;42884;50.718;4.630;2023-03-30T06:30:22;13.50;99.90
23873;DHT22;42884;50.718;4.630;2023-03-30T06:32:47;13.40;99.90
23873;DHT22;42884;50.718;4.630;2023-03-30T06:35:13;13.70;99.90
23873;DHT22;42884;50.718;4.630;2023-03-30T06:37:40;13.60;99.90
23873;DHT22;42884;50.718;4.630;2023-03-30T06:40:06;13.60;99.90
23873;DHT22;42884;50.718;4.630;2023-03-30T06:42:41;13.70;99.90
23873;DHT22;42884;50.718;4.630;2023-03-30T06:45:08;13.80;99.90
23873;DHT22;42884;50.718;4.630;2023-03-30T06:47:34;13.80;99.90
23873;DHT22;42884;50.718;4.630;2023-03-30T06:50:00;14.00;99.90
23873;DHT22;42884;50.718;4.630;2023-03-30T06:52:26;14.00;99.90
23873;DHT22;42884;50.718;4.630;2023-03-30T06:54:51;14.00;99.90
23873;DHT22;42884;50.718;4.630;2023-03-30T06:57:17;14.00;99.90
23873;DHT22;42884;50.718;4.630;2023-03-30T06:59:42;14.00;99.90
23873;DHT22;42884;50.718;4.630;2023-03-30T07:02:12;14.00;99.90
23873;DHT22;42884;50.718;4.630;2023-03-30T07:04:38;13.90;99.90
23873;DHT22;42884;50.718;4.630;2023-03-30T07:07:04;13.80;99.90
23873;DHT22;42884;50.718;4.630;2023-03-30T07:09:29;13.70;99.90
23873;DHT22;42884;50.718;4.630;2023-03-30T07:11:55;13.40;99.90
23873;DHT22;42884;50.718;4.630;2023-03-30T07:14:21;13.00;99.90
23873;DHT22;42884;50.718;4.630;2023-03-30T07:16:47;12.80;99.90
23873;DHT22;42884;50.718;4.630;2023-03-30T07:19:13;12.80;99.90
23873;DHT22;42884;50.718;4.630;2023-03-30T07:21:38;12.80;99.90
23873;DHT22;42884;50.718;4.630;2023-03-30T07:24:04;12.90;99.90
23873;DHT22;42884;50.718;4.630;2023-03-30T07:26:30;12.90;99.90
23873;DHT22;42884;50.718;4.630;2023-03-30T07:28:56;13.00;99.90
23873;DHT22;42884;50.718;4.630;2023-03-30T07:31:22;13.00;99.90
23873;DHT22;42884;50.718;4.630;2023-03-30T07:33:48;13.10;99.90
23873;DHT22;42884;50.718;4.630;2023-03-30T07:36:14;13.30;99.90
23873;DHT22;42884;50.718;4.630;2023-03-30T07:38:40;13.30;99.90
23873;DHT22;42884;50.718;4.630;2023-03-30T07:41:09;13.30;99.90
23873;DHT22;42884;50.718;4.630;2023-03-30T07:43:35;13.50;99.90
23873;DHT22;42884;50.718;4.630;2023-03-30T07:46:01;13.50;99.90
23873;DHT22;42884;50.718;4.630;2023-03-30T07:48:27;13.40;99.90
23873;DHT22;42884;50.718;4.630;2023-03-30T07:50:59;13.50;99.90
23873;DHT22;42884;50.718;4.630;2023-03-30T07:53:25;13.50;99.90
23873;DHT22;42884;50.718;4.630;2023-03-30T07:55:51;13.50;99.90
23873;DHT22;42884;50.718;4.630;2023-03-30T07:58:17;13.40;99.90
23873;DHT22;42884;50.718;4.630;2023-03-30T08:00:43;13.30;99.90
23873;DHT22;42884;50.718;4.630;2023-03-30T08:03:09;13.20;99.90
23873;DHT22;42884;50.718;4.630;2023-03-30T08:05:36;13.00;99.90
23873;DHT22;42884;50.718;4.630;2023-03-30T08:08:01;13.00;99.90
23873;DHT22;42884;50.718;4.630;2023-03-30T08:10:28;12.80;99.90
23873;DHT22;42884;50.718;4.630;2023-03-30T08:12:54;12.70;99.90
23873;DHT22;42884;50.718;4.630;2023-03-30T08:15:20;12.60;99.90
23873;DHT22;42884;50.718;4.630;2023-03-30T08:17:45;12.50;99.90
23873;DHT22;42884;50.718;4.630;2023-03-30T08:20:11;12.50;99.90
23873;DHT22;42884;50.718;4.630;2023-03-30T08:22:37;12.50;99.90
23873;DHT22;42884;50.718;4.630;2023-03-30T08:25:03;12.60;99.90
23873;DHT22;42884;50.718;4.630;2023-03-30T08:27:28;12.50;99.90
23873;DHT22;42884;50.718;4.630;2023-03-30T08:29:54;12.60;99.90
23873;DHT22;42884;50.718;4.630;2023-03-30T08:32:20;12.60;99.90
23873;DHT22;42884;50.718;4.630;2023-03-30T08:34:45;12.60;99.90
23873;DHT22;42884;50.718;4.630;2023-03-30T08:37:11;12.70;99.90
23873;DHT22;42884;50.718;4.630;2023-03-30T08:39:37;12.70;99.90
23873;DHT22;42884;50.718;4.630;2023-03-30T08:42:24;12.80;99.90
23873;DHT22;42884;50.718;4.630;2023-03-30T08:44:55;12.70;99.90
23873;DHT22;42884;50.718;4.630;2023-03-30T08:47:23;12.90;99.90
23873;DHT22;42884;50.718;4.630;2023-03-30T08:49:54;13.00;99.90
23873;DHT22;42884;50.718;4.630;2023-03-30T08:52:23;12.90;99.90
23873;DHT22;42884;50.718;4.630;2023-03-30T08:54:49;13.00;99.90
23873;DHT22;42884;50.718;4.630;2023-03-30T08:59:49;12.90;99.90
23873;DHT22;42884;50.718;4.630;2023-03-30T09:02:25;13.30;99.90
23873;DHT22;42884;50.718;4.630;2023-03-30T09:07:28;14.50;99.90
23873;DHT22;42884;50.718;4.630;2023-03-30T09:09:55;15.30;99.90
23873;DHT22;42884;50.718;4.630;2023-03-30T09:20:15;15.30;99.90
23873;DHT22;42884;50.718;4.630;2023-03-30T09:22:43;15.20;99.90
23873;DHT22;42884;50.718;4.630;2023-03-30T09:28:12;14.80;99.90
23873;DHT22;42884;50.718;4.630;2023-03-30T09:30:39;14.90;99.90
23873;DHT22;42884;50.718;4.630;2023-03-30T09:33:12;15.80;99.90
23873;DHT22;42884;50.718;4.630;2023-03-30T09:35:42;16.10;99.90
23873;DHT22;42884;50.718;4.630;2023-03-30T09:38:12;16.50;99.90
23873;DHT22;42884;50.718;4.630;2023-03-30T09:43:58;16.60;99.90
23873;DHT22;42884;50.718;4.630;2023-03-30T09:46:17;16.60;99.90
23873;DHT22;42884;50.718;4.630;2023-03-30T09:48:43;16.30;99.90
23873;DHT22;42884;50.718;4.630;2023-03-30T09:51:22;16.10;99.90
23873;DHT22;42884;50.718;4.630;2023-03-30T09:53:49;15.90;99.90
23873;DHT22;42884;50.718;4.630;2023-03-30T09:56:20;16.00;99.90
23873;DHT22;42884;50.718;4.630;2023-03-30T09:58:46;16.30;99.90
23873;DHT22;42884;50.718;4.630;2023-03-30T10:01:16;16.50;99.90
23873;DHT22;42884;50.718;4.630;2023-03-30T10:03:43;16.50;99.90
23873;DHT22;42884;50.718;4.630;2023-03-30T10:06:10;16.40;99.90
23873;DHT22;42884;50.718;4.630;2023-03-30T10:11:18;16.60;99.90
23873;DHT22;42884;50.718;4.630;2023-03-30T10:13:44;16.80;99.90
23873;DHT22;42884;50.718;4.630;2023-03-30T10:16:12;16.90;99.90
23873;DHT22;42884;50.718;4.630;2023-03-30T10:18:43;16.70;99.90
23873;DHT22;42884;50.718;4.630;2023-03-30T10:23:36;16.90;99.90
23873;DHT22;42884;50.718;4.630;2023-03-30T10:26:14;16.90;99.90
23873;DHT22;42884;50.718;4.630;2023-03-30T10:28:50;17.10;99.90
23873;DHT22;42884;50.718;4.630;2023-03-30T10:31:16;17.80;99.90
23873;DHT22;42884;50.718;4.630;2023-03-30T10:33:42;18.10;99.90
23873;DHT22;42884;50.718;4.630;2023-03-30T10:36:09;18.60;99.90
23873;DHT22;42884;50.718;4.630;2023-03-30T10:38:35;19.00;99.90
23873;DHT22;42884;50.718;4.630;2023-03-30T10:41:06;19.50;99.90
23873;DHT22;42884;50.718;4.630;2023-03-30T10:43:33;19.70;99.90
23873;DHT22;42884;50.718;4.630;2023-03-30T10:46:06;19.10;99.90
23873;DHT22;42884;50.718;4.630;2023-03-30T10:51:27;18.20;99.90
23873;DHT22;42884;50.718;4.630;2023-03-30T10:54:04;18.10;99.90
23873;DHT22;42884;50.718;4.630;2023-03-30T10:56:43;18.30;99.90
23873;DHT22;42884;50.718;4.630;2023-03-30T10:59:15;17.80;99.90
23873;DHT22;42884;50.718;4.630;2023-03-30T11:04:21;16.90;99.90
23873;DHT22;42884;50.718;4.630;2023-03-30T11:06:48;16.80;99.90
23873;DHT22;42884;50.718;4.630;2023-03-30T11:09:18;16.60;99.90
23873;DHT22;42884;50.718;4.630;2023-03-30T11:11:47;16.60;99.90
23873;DHT22;42884;50.718;4.630;2023-03-30T11:14:15;16.50;99.90
23873;DHT22;42884;50.718;4.630;2023-03-30T11:16:46;16.30;99.90
23873;DHT22;42884;50.718;4.630;2023-03-30T11:19:21;15.90;99.90
23873;DHT22;42884;50.718;4.630;2023-03-30T11:24:21;15.50;99.90
23873;DHT22;42884;50.718;4.630;2023-03-30T11:34:47;14.70;99.90
23873;DHT22;42884;50.718;4.630;2023-03-30T11:42:53;15.20;99.90
23873;DHT22;42884;50.718;4.630;2023-03-30T11:50:41;17.00;99.90
23873;DHT22;42884;50.718;4.630;2023-03-30T11:55:57;18.60;99.90
23873;DHT22;42884;50.718;4.630;2023-03-30T11:58:35;19.10;99.90
23873;DHT22;42884;50.718;4.630;2023-03-30T12:03:43;20.10;99.90
23873;DHT22;42884;50.718;4.630;2023-03-30T12:06:32;20.10;99.90
23873;DHT22;42884;50.718;4.630;2023-03-30T12:14:20;19.60;99.90
23873;DHT22;42884;50.718;4.630;2023-03-30T12:16:52;19.30;99.90
23873;DHT22;42884;50.718;4.630;2023-03-30T12:19:21;18.60;99.90
23873;DHT22;42884;50.718;4.630;2023-03-30T12:24:32;18.90;99.90
23873;DHT22;42884;50.718;4.630;2023-03-30T12:27:00;18.80;99.90
23873;DHT22;42884;50.718;4.630;2023-03-30T12:29:42;18.40;99.90
23873;DHT22;42884;50.718;4.630;2023-03-30T12:32:17;18.00;99.90
23873;DHT22;42884;50.718;4.630;2023-03-30T12:34:44;17.70;99.90
23873;DHT22;42884;50.718;4.630;2023-03-30T12:39:52;17.20;99.90
23873;DHT22;42884;50.718;4.630;2023-03-30T12:47:41;19.20;99.90
23873;DHT22;42884;50.718;4.630;2023-03-30T13:08:08;19.00;99.90
23873;DHT22;42884;50.718;4.630;2023-03-30T13:10:36;18.50;99.90
23873;DHT22;42884;50.718;4.630;2023-03-30T13:13:02;17.80;99.90
23873;DHT22;42884;50.718;4.630;2023-03-30T13:20:20;17.90;99.90
23873;DHT22;42884;50.718;4.630;2023-03-30T13:22:59;17.70;99.90
23873;DHT22;42884;50.718;4.630;2023-03-30T13:25:37;17.60;99.90
23873;DHT22;42884;50.718;4.630;2023-03-30T13:30:48;17.60;99.90
23873;DHT22;42884;50.718;4.630;2023-03-30T13:33:13;18.10;99.90
23873;DHT22;42884;50.718;4.630;2023-03-30T13:43:42;17.70;99.90
23873;DHT22;42884;50.718;4.630;2023-03-30T13:51:18;17.50;99.90
23873;DHT22;42884;50.718;4.630;2023-03-30T13:53:49;18.00;99.90
23873;DHT22;42884;50.718;4.630;2023-03-30T13:56:16;18.60;99.90
23873;DHT22;42884;50.718;4.630;2023-03-30T13:58:44;18.80;99.90
23873;DHT22;42884;50.718;4.630;2023-03-30T14:01:13;18.80;99.90
23873;DHT22;42884;50.718;4.630;2023-03-30T14:06:20;18.50;99.90
23873;DHT22;42884;50.718;4.630;2023-03-30T14:08:49;18.40;99.90
23873;DHT22;42884;50.718;4.630;2023-03-30T14:11:21;19.00;99.90
23873;DHT22;42884;50.718;4.630;2023-03-30T14:13:48;19.40;99.90
23873;DHT22;42884;50.718;4.630;2023-03-30T14:16:21;19.50;99.90
23873;DHT22;42884;50.718;4.630;2023-03-30T14:18:47;19.80;99.90
23873;DHT22;42884;50.718;4.630;2023-03-30T14:21:22;19.90;99.90
23873;DHT22;42884;50.718;4.630;2023-03-30T14:23:51;19.90;99.90
23873;DHT22;42884;50.718;4.630;2023-03-30T14:26:21;19.90;99.90
23873;DHT22;42884;50.718;4.630;2023-03-30T14:28:47;20.00;99.90
23873;DHT22;42884;50.718;4.630;2023-03-30T14:31:18;20.00;99.90
23873;DHT22;42884;50.718;4.630;2023-03-30T14:33:45;20.10;99.90
23873;DHT22;42884;50.718;4.630;2023-03-30T14:36:13;20.40;99.90
23873;DHT22;42884;50.718;4.630;2023-03-30T14:38:49;20.40;99.90
23873;DHT22;42884;50.718;4.630;2023-03-30T14:41:20;20.10;99.90
23873;DHT22;42884;50.718;4.630;2023-03-30T14:43:54;19.90;99.90
23873;DHT22;42884;50.718;4.630;2023-03-30T14:46:20;19.50;99.90
23873;DHT22;42884;50.718;4.630;2023-03-30T14:48:47;19.10;99.90
23873;DHT22;42884;50.718;4.630;2023-03-30T14:51:24;18.30;99.90
23873;DHT22;42884;50.718;4.630;2023-03-30T14:53:51;17.70;99.90
23873;DHT22;42884;50.718;4.630;2023-03-30T14:56:16;17.30;99.90
23873;DHT22;42884;50.718;4.630;2023-03-30T14:58:42;17.00;99.90
23873;DHT22;42884;50.718;4.630;2023-03-30T15:01:09;17.00;99.90
23873;DHT22;42884;50.718;4.630;2023-03-30T15:03:35;17.20;99.90
23873;DHT22;42884;50.718;4.630;2023-03-30T15:06:02;17.20;99.90
23873;DHT22;42884;50.718;4.630;2023-03-30T15:08:30;17.30;99.90
23873;DHT22;42884;50.718;4.630;2023-03-30T15:10:56;17.70;99.90
23873;DHT22;42884;50.718;4.630;2023-03-30T15:15:57;18.20;99.90
23873;DHT22;42884;50.718;4.630;2023-03-30T15:18:24;18.60;99.90
23873;DHT22;42884;50.718;4.630;2023-03-30T15:20:50;18.60;99.90
23873;DHT22;42884;50.718;4.630;2023-03-30T15:23:16;18.90;99.90
23873;DHT22;42884;50.718;4.630;2023-03-30T15:25:42;18.40;99.90
23873;DHT22;42884;50.718;4.630;2023-03-30T15:28:10;18.20;99.90
23873;DHT22;42884;50.718;4.630;2023-03-30T15:30:37;18.10;99.90
23873;DHT22;42884;50.718;4.630;2023-03-30T15:33:03;18.00;99.90
23873;DHT22;42884;50.718;4.630;2023-03-30T15:35:32;18.10;99.90
23873;DHT22;42884;50.718;4.630;2023-03-30T15:40:32;17.70;99.90
23873;DHT22;42884;50.718;4.630;2023-03-30T15:45:39;17.70;99.90
23873;DHT22;42884;50.718;4.630;2023-03-30T15:48:07;17.80;99.90
23873;DHT22;42884;50.718;4.630;2023-03-30T15:50:34;17.70;99.90
23873;DHT22;42884;50.718;4.630;2023-03-30T15:53:01;17.50;99.90
23873;DHT22;42884;50.718;4.630;2023-03-30T15:55:28;17.50;99.90
23873;DHT22;42884;50.718;4.630;2023-03-30T15:57:54;17.30;99.90
23873;DHT22;42884;50.718;4.630;2023-03-30T16:00:23;17.20;99.90
23873;DHT22;42884;50.718;4.630;2023-03-30T16:02:56;16.80;99.90
23873;DHT22;42884;50.718;4.630;2023-03-30T16:05:23;16.40;99.90
23873;DHT22;42884;50.718;4.630;2023-03-30T16:07:49;16.50;99.90
23873;DHT22;42884;50.718;4.630;2023-03-30T16:10:16;16.40;99.90
23873;DHT22;42884;50.718;4.630;2023-03-30T16:12:44;16.20;99.90
23873;DHT22;42884;50.718;4.630;2023-03-30T16:15:13;16.20;99.90
23873;DHT22;42884;50.718;4.630;2023-03-30T16:17:39;16.40;99.90
23873;DHT22;42884;50.718;4.630;2023-03-30T16:20:21;16.70;99.90
23873;DHT22;42884;50.718;4.630;2023-03-30T16:22:47;16.80;99.90
23873;DHT22;42884;50.718;4.630;2023-03-30T16:25:13;17.00;99.90
23873;DHT22;42884;50.718;4.630;2023-03-30T16:27:40;17.00;99.90
23873;DHT22;42884;50.718;4.630;2023-03-30T16:32:40;16.70;99.90
23873;DHT22;42884;50.718;4.630;2023-03-30T16:35:06;16.70;99.90
23873;DHT22;42884;50.718;4.630;2023-03-30T16:37:32;16.40;99.90
23873;DHT22;42884;50.718;4.630;2023-03-30T16:39:57;16.30;99.90
23873;DHT22;42884;50.718;4.630;2023-03-30T16:42:23;16.20;99.90
23873;DHT22;42884;50.718;4.630;2023-03-30T16:44:51;16.40;99.90
23873;DHT22;42884;50.718;4.630;2023-03-30T16:47:16;16.20;99.90
23873;DHT22;42884;50.718;4.630;2023-03-30T16:49:44;15.90;99.90
23873;DHT22;42884;50.718;4.630;2023-03-30T16:52:10;15.70;99.90
23873;DHT22;42884;50.718;4.630;2023-03-30T16:54:36;15.70;99.90
23873;DHT22;42884;50.718;4.630;2023-03-30T16:57:01;15.60;99.90
23873;DHT22;42884;50.718;4.630;2023-03-30T16:59:27;15.50;99.90
23873;DHT22;42884;50.718;4.630;2023-03-30T17:01:54;15.40;99.90
23873;DHT22;42884;50.718;4.630;2023-03-30T17:04:20;15.40;99.90
23873;DHT22;42884;50.718;4.630;2023-03-30T17:06:45;15.40;99.90
23873;DHT22;42884;50.718;4.630;2023-03-30T17:09:13;15.50;99.90
23873;DHT22;42884;50.718;4.630;2023-03-30T17:11:40;15.60;99.90
23873;DHT22;42884;50.718;4.630;2023-03-30T17:14:06;15.60;99.90
23873;DHT22;42884;50.718;4.630;2023-03-30T17:16:32;15.70;99.90
23873;DHT22;42884;50.718;4.630;2023-03-30T17:18:58;15.70;99.90
23873;DHT22;42884;50.718;4.630;2023-03-30T17:21:23;15.60;99.90
23873;DHT22;42884;50.718;4.630;2023-03-30T17:23:49;15.40;99.90
23873;DHT22;42884;50.718;4.630;2023-03-30T17:26:15;15.10;99.90
23873;DHT22;42884;50.718;4.630;2023-03-30T17:28:41;15.00;99.90
23873;DHT22;42884;50.718;4.630;2023-03-30T17:31:14;14.90;99.90
23873;DHT22;42884;50.718;4.630;2023-03-30T17:33:40;14.90;99.90
23873;DHT22;42884;50.718;4.630;2023-03-30T17:36:10;14.80;99.90
23873;DHT22;42884;50.718;4.630;2023-03-30T17:38:36;15.00;99.90
23873;DHT22;42884;50.718;4.630;2023-03-30T17:41:02;14.80;99.90
23873;DHT22;42884;50.718;4.630;2023-03-30T17:43:27;14.70;99.90
23873;DHT22;42884;50.718;4.630;2023-03-30T17:45:53;14.80;99.90
23873;DHT22;42884;50.718;4.630;2023-03-30T17:48:19;14.70;99.90
23873;DHT22;42884;50.718;4.630;2023-03-30T17:50:46;14.60;99.90
23873;DHT22;42884;50.718;4.630;2023-03-30T17:53:12;14.70;99.90
23873;DHT22;42884;50.718;4.630;2023-03-30T17:55:42;14.60;99.90
23873;DHT22;42884;50.718;4.630;2023-03-30T17:58:20;14.60;99.90
23873;DHT22;42884;50.718;4.630;2023-03-30T18:00:46;14.40;99.90
23873;DHT22;42884;50.718;4.630;2023-03-30T18:03:13;14.40;99.90
23873;DHT22;42884;50.718;4.630;2023-03-30T18:05:39;14.40;99.90
23873;DHT22;42884;50.718;4.630;2023-03-30T18:08:04;14.20;99.90
23873;DHT22;42884;50.718;4.630;2023-03-30T18:10:34;14.10;99.90
23873;DHT22;42884;50.718;4.630;2023-03-30T18:13:00;14.10;99.90
23873;DHT22;42884;50.718;4.630;2023-03-30T18:15:26;13.90;99.90
23873;DHT22;42884;50.718;4.630;2023-03-30T18:17:52;13.90;99.90
23873;DHT22;42884;50.718;4.630;2023-03-30T18:22:44;14.00;99.90
23873;DHT22;42884;50.718;4.630;2023-03-30T18:25:10;14.10;99.90